createdAt,value
2022-10-28T00:00:48.289Z,3.15
2022-10-28T00:03:15.531Z,3.10
2022-10-28T00:05:44.049Z,3.55
2022-10-28T00:08:11.361Z,3.17
2022-10-28T00:10:38.536Z,2.83
2022-10-28T00:13:05.629Z,2.78
2022-10-28T00:15:34.421Z,2.90
2022-10-28T00:18:01.566Z,2.75
2022-10-28T00:20:30.356Z,3.08
2022-10-28T00:22:58.800Z,2.65
2022-10-28T00:25:25.922Z,3.15
2022-10-28T00:27:53.315Z,2.80
2022-10-28T00:30:20.740Z,2.75
2022-10-28T00:32:48.030Z,2.88
2022-10-28T00:35:15.237Z,2.90
2022-10-28T00:37:42.587Z,3.25
2022-10-28T00:40:12.097Z,2.80
2022-10-28T00:42:39.188Z,2.92
2022-10-28T00:45:09.275Z,2.70
2022-10-28T00:47:44.042Z,2.80
2022-10-28T00:50:20.171Z,2.90
2022-10-28T00:52:57.290Z,2.78
2022-10-28T00:55:26.094Z,3.05
2022-10-28T00:57:55.144Z,3.00
2022-10-28T01:03:15.649Z,2.78
2022-10-28T01:05:46.370Z,2.75
2022-10-28T01:08:14.249Z,2.63
2022-10-28T01:11:04.762Z,2.50
2022-10-28T01:13:43.852Z,2.58
2022-10-28T01:16:26.219Z,2.50
2022-10-28T01:19:07.225Z,3.05
2022-10-28T01:22:07.519Z,2.75
2022-10-28T01:25:07.280Z,2.67
2022-10-28T01:28:13.471Z,2.95
2022-10-28T01:31:07.757Z,2.90
2022-10-28T01:33:38.297Z,2.63
2022-10-28T01:36:14.299Z,2.33
2022-10-28T01:38:49.598Z,2.40
2022-10-28T01:41:22.655Z,2.75
2022-10-28T01:43:56.491Z,2.60
2022-10-28T01:46:28.940Z,2.50
2022-10-28T01:49:01.114Z,2.35
2022-10-28T01:51:32.751Z,2.22
2022-10-28T01:54:03.351Z,2.67
2022-10-28T01:56:36.061Z,2.40
2022-10-28T01:59:06.415Z,2.55
2022-10-28T02:01:36.483Z,2.47
2022-10-28T02:04:04.042Z,2.30
2022-10-28T02:06:32.840Z,2.30
2022-10-28T02:09:10.306Z,2.30
2022-10-28T02:11:51.442Z,2.47
2022-10-28T02:14:32.436Z,2.45
2022-10-28T02:17:10.467Z,2.33
2022-10-28T02:19:44.572Z,2.33
2022-10-28T02:22:20.462Z,2.65
2022-10-28T02:24:54.693Z,2.63
2022-10-28T02:27:32.902Z,2.65
2022-10-28T02:30:04.599Z,2.33
2022-10-28T02:32:37.913Z,2.20
2022-10-28T02:35:11.772Z,2.17
2022-10-28T02:37:40.816Z,2.42
2022-10-28T02:40:14.669Z,2.40
2022-10-28T02:42:48.741Z,2.53
2022-10-28T02:47:50.633Z,2.65
2022-10-28T02:50:22.097Z,2.50
2022-10-28T02:52:53.821Z,2.40
2022-10-28T02:55:24.154Z,2.42
2022-10-28T02:57:51.726Z,2.50
2022-10-28T03:00:21.905Z,2.33
2022-10-28T03:02:50.496Z,2.50
2022-10-28T03:05:17.743Z,2.20
2022-10-28T03:07:44.954Z,2.35
2022-10-28T03:10:12.057Z,2.03
2022-10-28T03:12:39.244Z,2.17
2022-10-28T03:15:07.346Z,2.20
2022-10-28T03:17:34.459Z,2.50
2022-10-28T03:20:03.071Z,2.30
2022-10-28T03:22:30.168Z,2.30
2022-10-28T03:24:57.262Z,2.22
2022-10-28T03:27:24.412Z,2.10
2022-10-28T03:29:51.484Z,2.10
2022-10-28T03:32:18.581Z,2.40
2022-10-28T03:34:45.732Z,2.10
2022-10-28T03:37:14.509Z,2.40
2022-10-28T03:39:41.596Z,2.22
2022-10-28T03:42:08.715Z,2.28
2022-10-28T03:44:35.809Z,2.10
2022-10-28T03:47:02.924Z,2.28
2022-10-28T03:49:30.002Z,2.17
2022-10-28T03:51:57.099Z,2.30
2022-10-28T03:54:25.612Z,2.10
2022-10-28T03:56:52.720Z,2.28
2022-10-28T03:59:20.397Z,2.33
2022-10-28T04:01:47.747Z,2.20
2022-10-28T04:04:14.898Z,1.90
2022-10-28T04:06:42.011Z,2.30
2022-10-28T04:09:09.152Z,2.10
2022-10-28T04:11:37.572Z,2.10
2022-10-28T04:14:04.728Z,2.50
2022-10-28T04:16:31.829Z,2.10
2022-10-28T04:18:59.017Z,2.92
2022-10-28T04:21:26.310Z,2.17
2022-10-28T04:23:53.385Z,2.00
2022-10-28T04:26:20.456Z,2.05
2022-10-28T04:28:48.927Z,2.00
2022-10-28T04:31:16.017Z,2.22
2022-10-28T04:33:43.101Z,1.70
2022-10-28T04:36:10.350Z,1.70
2022-10-28T04:38:37.427Z,1.90
2022-10-28T04:41:04.799Z,1.90
2022-10-28T04:43:31.905Z,1.95
2022-10-28T04:46:00.334Z,1.95
2022-10-28T04:48:27.534Z,2.00
2022-10-28T04:50:56.990Z,1.80
2022-10-28T04:53:24.107Z,1.92
2022-10-28T04:55:51.321Z,1.90
2022-10-28T04:58:18.416Z,2.05
2022-10-28T05:00:45.502Z,1.80
2022-10-28T05:03:13.925Z,1.80
2022-10-28T05:05:41.131Z,1.90
2022-10-28T05:08:08.219Z,2.15
2022-10-28T05:10:35.305Z,2.00
2022-10-28T05:13:02.448Z,1.80
2022-10-28T05:15:29.544Z,1.98
2022-10-28T05:17:56.754Z,1.90
2022-10-28T05:20:25.414Z,2.08
2022-10-28T05:22:54.252Z,1.90
2022-10-28T05:25:22.345Z,1.98
2022-10-28T05:27:49.837Z,1.73
2022-10-28T05:30:17.680Z,1.95
2022-10-28T05:32:45.081Z,2.10
2022-10-28T05:35:12.317Z,2.03
2022-10-28T05:37:40.757Z,1.80
2022-10-28T05:40:09.226Z,1.60
2022-10-28T05:42:40.760Z,2.00
2022-10-28T05:45:08.596Z,1.90
2022-10-28T05:47:39.197Z,1.77
2022-10-28T05:50:07.814Z,1.80
2022-10-28T05:52:34.912Z,1.80
2022-10-28T05:55:03.938Z,1.88
2022-10-28T05:57:33.810Z,2.30
2022-10-28T06:00:01.004Z,1.88
2022-10-28T06:02:28.224Z,1.95
2022-10-28T06:04:55.360Z,1.77
2022-10-28T06:07:22.648Z,1.83
2022-10-28T06:09:49.748Z,1.63
2022-10-28T06:12:16.650Z,2.00
2022-10-28T06:14:43.759Z,1.70
2022-10-28T06:17:11.028Z,1.75
2022-10-28T06:19:38.260Z,1.95
2022-10-28T06:22:05.343Z,1.73
2022-10-28T06:24:32.433Z,1.70
2022-10-28T06:26:59.684Z,1.90
2022-10-28T06:29:28.192Z,1.85
2022-10-28T06:31:55.273Z,1.60
2022-10-28T06:34:22.510Z,1.75
2022-10-28T06:36:49.740Z,1.52
2022-10-28T06:39:18.429Z,1.80
2022-10-28T06:41:45.561Z,1.77
2022-10-28T06:44:12.649Z,1.83
2022-10-28T06:46:42.623Z,1.65
2022-10-28T06:49:09.923Z,1.70
2022-10-28T06:51:37.026Z,1.80
2022-10-28T06:54:04.233Z,1.85
2022-10-28T06:56:31.346Z,1.80
2022-10-28T06:58:58.418Z,2.10
2022-10-28T07:01:25.804Z,1.90
2022-10-28T07:03:54.362Z,1.90
2022-10-28T07:06:21.458Z,1.77
2022-10-28T07:08:48.536Z,1.90
2022-10-28T07:11:15.639Z,2.00
2022-10-28T07:13:44.309Z,1.95
2022-10-28T07:16:13.719Z,2.00
2022-10-28T07:18:40.936Z,2.08
2022-10-28T07:21:09.445Z,1.85
2022-10-28T07:23:36.519Z,1.90
2022-10-28T07:26:04.000Z,1.90
2022-10-28T07:28:31.437Z,1.90
2022-10-28T07:31:00.737Z,2.03
2022-10-28T07:33:28.075Z,2.00
2022-10-28T07:35:55.261Z,1.73
2022-10-28T07:38:23.798Z,2.00
2022-10-28T07:40:50.906Z,1.60
2022-10-28T07:43:17.998Z,2.20
2022-10-28T07:45:45.285Z,1.88
2022-10-28T07:48:12.417Z,2.40
2022-10-28T07:50:40.441Z,2.10
2022-10-28T07:53:07.775Z,1.90
2022-10-28T07:55:36.283Z,2.10
2022-10-28T07:58:03.466Z,2.08
2022-10-28T08:00:31.929Z,2.13
2022-10-28T08:02:59.021Z,2.03
2022-10-28T08:05:26.153Z,2.13
2022-10-28T08:07:53.503Z,1.90
2022-10-28T08:10:20.743Z,2.10
2022-10-28T08:12:49.162Z,2.00
2022-10-28T08:15:16.284Z,2.20
2022-10-28T08:17:43.374Z,2.10
2022-10-28T08:20:10.806Z,2.13
2022-10-28T08:22:37.898Z,1.90
2022-10-28T08:25:05.563Z,2.08
2022-10-28T08:27:32.620Z,1.90
2022-10-28T08:30:01.205Z,2.17
2022-10-28T08:32:28.373Z,2.15
2022-10-28T08:34:55.456Z,2.40
2022-10-28T08:37:22.708Z,2.47
2022-10-28T08:39:50.010Z,2.08
2022-10-28T08:42:35.295Z,2.35
2022-10-28T08:45:21.928Z,2.45
2022-10-28T08:47:59.615Z,2.20
2022-10-28T08:50:28.219Z,2.08
2022-10-28T08:52:59.299Z,2.03
2022-10-28T08:55:30.397Z,2.15
2022-10-28T08:58:02.700Z,2.40
2022-10-28T09:00:33.366Z,2.58
2022-10-28T09:03:16.226Z,2.10
2022-10-28T09:05:45.504Z,2.40
2022-10-28T09:08:21.001Z,2.10
2022-10-28T09:11:11.893Z,2.17
2022-10-28T09:13:52.276Z,2.38
2022-10-28T09:16:31.370Z,2.17
2022-10-28T09:19:03.790Z,2.33
2022-10-28T09:21:35.318Z,2.42
2022-10-28T09:24:14.031Z,2.22
2022-10-28T09:26:49.421Z,2.50
2022-10-28T09:29:26.294Z,2.55
2022-10-28T09:32:01.527Z,2.38
2022-10-28T09:34:39.549Z,2.45
2022-10-28T09:37:13.923Z,2.38
2022-10-28T09:39:43.654Z,2.08
2022-10-28T09:42:14.738Z,2.28
2022-10-28T09:44:47.532Z,2.42
2022-10-28T09:47:19.781Z,2.10
2022-10-28T09:49:49.172Z,2.20
2022-10-28T09:52:21.698Z,2.55
2022-10-28T09:54:51.631Z,2.33
2022-10-28T09:57:19.105Z,2.47
2022-10-28T09:59:46.828Z,2.10
2022-10-28T10:02:26.947Z,2.20
2022-10-28T10:04:54.975Z,2.20
2022-10-28T10:07:29.128Z,1.80
2022-10-28T10:09:59.899Z,2.40
2022-10-28T10:12:28.318Z,2.30
2022-10-28T10:14:57.781Z,2.38
2022-10-28T10:17:33.602Z,2.30
2022-10-28T10:20:04.366Z,2.40
2022-10-28T10:22:33.053Z,2.53
2022-10-28T10:25:00.500Z,2.40
2022-10-28T10:27:30.306Z,2.20
2022-10-28T10:29:58.621Z,2.40
2022-10-28T10:32:31.229Z,2.30
2022-10-28T10:35:02.766Z,2.35
2022-10-28T10:37:33.309Z,2.25
2022-10-28T10:40:17.638Z,2.42
2022-10-28T10:42:57.393Z,2.25
2022-10-28T10:45:32.471Z,2.25
2022-10-28T10:48:12.323Z,2.17
2022-10-28T10:50:40.133Z,2.20
2022-10-28T10:53:21.341Z,2.20
2022-10-28T10:55:51.417Z,2.20
2022-10-28T10:58:21.603Z,2.20
2022-10-28T11:00:50.947Z,2.33
2022-10-28T11:03:23.957Z,2.10
2022-10-28T11:05:59.997Z,2.00
2022-10-28T11:08:41.898Z,2.22
2022-10-28T11:11:13.787Z,2.58
2022-10-28T11:13:45.147Z,2.38
2022-10-28T11:16:21.765Z,2.30
2022-10-28T11:18:52.259Z,2.20
2022-10-28T11:21:45.919Z,1.98
2022-10-28T11:24:30.850Z,1.90
2022-10-28T11:27:06.361Z,1.90
2022-10-28T11:29:33.576Z,2.20
2022-10-28T11:32:18.055Z,2.05
2022-10-28T11:35:06.646Z,1.90
2022-10-28T11:37:49.619Z,2.50
2022-10-28T11:40:27.981Z,2.28
2022-10-28T11:43:08.906Z,1.90
2022-10-28T11:45:45.799Z,2.00
2022-10-28T11:48:31.872Z,2.00
2022-10-28T11:51:10.009Z,1.95
2022-10-28T11:53:49.235Z,2.10
2022-10-28T11:56:27.461Z,1.90
2022-10-28T11:59:03.547Z,2.22
2022-10-28T12:01:44.814Z,1.90
2022-10-28T12:04:25.749Z,1.70
2022-10-28T12:07:10.557Z,1.75
2022-10-28T12:09:53.726Z,1.98
2022-10-28T12:12:26.232Z,2.08
2022-10-28T12:15:01.708Z,2.17
2022-10-28T12:17:35.034Z,1.85
2022-10-28T12:20:11.243Z,2.15
2022-10-28T12:22:48.068Z,2.15
2022-10-28T12:25:20.447Z,1.70
2022-10-28T12:27:49.414Z,2.00
2022-10-28T12:30:21.662Z,2.17
2022-10-28T12:32:53.045Z,1.90
2022-10-28T12:35:24.913Z,2.00
2022-10-28T12:37:58.072Z,2.13
2022-10-28T12:40:29.234Z,1.90
2022-10-28T12:43:03.801Z,1.65
2022-10-28T12:45:32.625Z,1.73
2022-10-28T12:48:04.476Z,1.88
2022-10-28T12:50:38.034Z,2.03
2022-10-28T12:53:27.586Z,1.52
2022-10-28T12:55:58.759Z,1.38
2022-10-28T12:58:32.308Z,1.90
2022-10-28T13:01:03.035Z,1.85
2022-10-28T13:03:31.331Z,2.10
2022-10-28T13:06:21.977Z,2.10
2022-10-28T13:09:24.225Z,2.05
2022-10-28T13:12:26.801Z,1.70
2022-10-28T13:15:17.789Z,1.70
2022-10-28T13:18:00.935Z,1.77
2022-10-28T13:20:41.292Z,1.70
2022-10-28T13:23:20.720Z,2.20
2022-10-28T13:25:59.817Z,1.67
2022-10-28T13:28:30.352Z,1.90
2022-10-28T13:31:00.350Z,1.80
2022-10-28T13:33:29.704Z,1.92
2022-10-28T13:36:10.289Z,2.00
2022-10-28T13:38:38.439Z,1.83
2022-10-28T13:41:25.637Z,1.90
2022-10-28T13:44:26.862Z,1.75
2022-10-28T13:47:26.837Z,1.90
2022-10-28T13:50:21.245Z,2.05
2022-10-28T13:53:41.470Z,1.95
2022-10-28T13:56:25.174Z,2.15
2022-10-28T13:58:54.865Z,1.98
2022-10-28T14:01:56.784Z,2.22
2022-10-28T14:04:38.317Z,1.85
2022-10-28T14:07:19.463Z,2.00
2022-10-28T14:09:47.967Z,1.70
2022-10-28T14:12:20.961Z,2.53
2022-10-28T14:14:59.386Z,1.73
2022-10-28T14:17:33.451Z,1.60
2022-10-28T14:20:04.237Z,1.92
2022-10-28T14:22:33.785Z,2.03
2022-10-28T14:25:01.579Z,2.45
2022-10-28T14:27:42.497Z,1.90
2022-10-28T14:30:21.401Z,2.13
2022-10-28T14:33:02.335Z,2.30
2022-10-28T14:35:38.291Z,1.98
2022-10-28T14:38:38.587Z,2.08
2022-10-28T14:41:17.139Z,2.28
2022-10-28T14:43:57.865Z,2.00
2022-10-28T14:46:35.638Z,2.20
2022-10-28T14:49:04.889Z,1.92
2022-10-28T14:51:40.111Z,1.90
2022-10-28T14:54:13.310Z,2.22
2022-10-28T14:56:41.354Z,2.10
2022-10-28T14:59:23.003Z,2.00
2022-10-28T15:01:59.853Z,1.90
2022-10-28T15:04:28.635Z,2.20
2022-10-28T15:06:57.422Z,2.22
2022-10-28T15:09:27.671Z,2.22
2022-10-28T15:11:57.055Z,2.20
2022-10-28T15:14:27.353Z,2.30
2022-10-28T15:16:54.813Z,2.00
2022-10-28T15:19:24.613Z,1.75
2022-10-28T15:22:11.814Z,1.80
2022-10-28T15:24:43.009Z,2.20
2022-10-28T15:27:13.350Z,1.80
2022-10-28T15:29:42.220Z,2.08
2022-10-28T15:32:26.020Z,2.03
2022-10-28T15:34:53.197Z,2.20
2022-10-28T15:37:24.055Z,2.15
2022-10-28T15:39:52.413Z,1.85
2022-10-28T15:42:39.009Z,1.98
2022-10-28T15:45:15.395Z,2.05
2022-10-28T15:47:44.858Z,2.28
2022-10-28T15:50:27.841Z,1.95
2022-10-28T15:53:31.255Z,2.40
2022-10-28T15:56:09.281Z,1.90
2022-10-28T15:58:39.106Z,2.47
2022-10-28T16:01:10.089Z,1.92
2022-10-28T16:03:45.417Z,2.00
2022-10-28T16:06:24.754Z,2.17
2022-10-28T16:09:06.428Z,2.10
2022-10-28T16:11:35.794Z,2.20
2022-10-28T16:14:17.023Z,2.30
2022-10-28T16:16:44.250Z,2.22
2022-10-28T16:19:25.201Z,2.08
2022-10-28T16:21:52.342Z,1.90
2022-10-28T16:24:20.785Z,2.08
2022-10-28T16:26:47.900Z,2.10
2022-10-28T16:29:15.009Z,2.28
2022-10-28T16:31:42.304Z,2.05
2022-10-28T16:34:14.558Z,2.22
2022-10-28T16:36:41.625Z,2.13
2022-10-28T16:39:11.802Z,2.10
2022-10-28T16:41:40.306Z,2.10
2022-10-28T16:44:16.535Z,2.20
2022-10-28T16:46:43.714Z,2.15
2022-10-28T16:49:10.784Z,2.47
2022-10-28T16:51:37.862Z,2.10
2022-10-28T16:54:04.989Z,2.15
2022-10-28T16:56:32.061Z,2.03
2022-10-28T16:59:00.526Z,2.75
2022-10-28T17:01:27.863Z,2.20
2022-10-28T17:03:55.069Z,2.13
2022-10-28T17:06:22.410Z,2.10
2022-10-28T17:09:02.396Z,1.98
2022-10-28T17:13:59.737Z,2.45
2022-10-28T17:16:26.845Z,2.45
2022-10-28T17:18:53.940Z,2.38
2022-10-28T17:21:21.037Z,2.13
2022-10-28T17:23:48.252Z,2.15
2022-10-28T17:26:15.537Z,2.35
2022-10-28T17:28:42.908Z,2.40
2022-10-28T17:31:11.408Z,2.38
2022-10-28T17:33:38.485Z,2.10
2022-10-28T17:36:07.245Z,2.65
2022-10-28T17:38:34.444Z,2.50
2022-10-28T17:41:01.870Z,2.28
2022-10-28T17:43:29.251Z,2.33
2022-10-28T17:46:03.948Z,2.10
2022-10-28T17:48:33.051Z,2.40
2022-10-28T17:51:00.308Z,2.38
2022-10-28T17:53:27.447Z,2.50
2022-10-28T17:55:57.794Z,2.40
2022-10-28T17:58:25.615Z,2.55
2022-10-28T18:00:56.615Z,2.65
2022-10-28T18:03:23.874Z,2.38
2022-10-28T18:05:52.375Z,2.58
2022-10-28T18:08:19.641Z,2.50
2022-10-28T18:10:53.477Z,2.70
2022-10-28T18:13:20.725Z,2.95
2022-10-28T18:15:47.941Z,2.60
2022-10-28T18:18:15.034Z,2.85
2022-10-28T18:20:42.191Z,2.80
2022-10-28T18:23:10.629Z,2.38
2022-10-28T18:25:37.732Z,2.85
2022-10-28T18:28:05.530Z,2.90
2022-10-28T18:30:32.755Z,3.55
2022-10-28T18:32:59.877Z,3.15
2022-10-28T18:35:27.671Z,3.55
2022-10-28T18:37:55.008Z,3.55
2022-10-28T18:40:23.815Z,3.30
2022-10-28T18:42:51.027Z,3.42
2022-10-28T18:45:18.231Z,3.42
2022-10-28T18:47:45.325Z,4.00
2022-10-28T18:50:12.516Z,3.58
2022-10-28T18:52:39.663Z,4.05
2022-10-28T18:55:07.375Z,3.65
2022-10-28T18:57:36.010Z,3.78
2022-10-28T19:00:17.912Z,3.67
2022-10-28T19:02:47.803Z,4.22
2022-10-28T19:05:15.204Z,3.67
2022-10-28T19:07:42.527Z,3.97
2022-10-28T19:10:10.025Z,3.83
2022-10-28T19:12:42.866Z,3.65
2022-10-28T19:15:12.302Z,4.45
2022-10-28T19:17:39.414Z,4.22
2022-10-28T19:20:07.556Z,3.88
2022-10-28T19:22:34.706Z,4.20
2022-10-28T19:25:01.839Z,4.28
2022-10-28T19:27:28.922Z,4.40
2022-10-28T19:29:57.559Z,4.57
2022-10-28T19:32:24.658Z,3.92
2022-10-28T19:34:51.743Z,4.28
2022-10-28T19:37:18.839Z,4.50
2022-10-28T19:39:45.930Z,3.72
2022-10-28T19:42:13.032Z,4.10
2022-10-28T19:44:40.117Z,3.83
2022-10-28T19:47:08.762Z,4.07
2022-10-28T19:49:39.296Z,4.13
2022-10-28T19:52:07.982Z,3.95
2022-10-28T19:54:35.077Z,4.00
2022-10-28T19:57:02.228Z,3.53
2022-10-28T19:59:29.366Z,4.50
2022-10-28T20:01:56.559Z,3.58
2022-10-28T20:04:25.254Z,4.25
2022-10-28T20:06:52.538Z,3.95
2022-10-28T20:09:19.662Z,3.83
2022-10-28T20:11:46.734Z,3.53
2022-10-28T20:14:13.944Z,3.33
2022-10-28T20:16:42.372Z,4.00
2022-10-28T20:19:09.885Z,3.63
2022-10-28T20:21:38.870Z,3.80
2022-10-28T20:24:07.073Z,3.50
2022-10-28T20:26:36.658Z,3.97
2022-10-28T20:29:04.605Z,3.78
2022-10-28T20:31:32.474Z,3.45
2022-10-28T20:34:01.298Z,4.03
2022-10-28T20:36:29.890Z,3.90
2022-10-28T20:38:59.660Z,4.00
2022-10-28T20:41:29.513Z,4.00
2022-10-28T20:43:56.857Z,3.65
2022-10-28T20:46:25.062Z,4.03
2022-10-28T20:48:52.871Z,3.70
2022-10-28T20:51:20.347Z,3.63
2022-10-28T20:53:47.429Z,3.60
2022-10-28T20:56:17.378Z,3.45
2022-10-28T20:58:44.497Z,3.50
2022-10-28T21:01:13.831Z,3.70
2022-10-28T21:03:41.408Z,3.42
2022-10-28T21:06:08.666Z,3.30
2022-10-28T21:08:36.252Z,3.30
2022-10-28T21:11:03.662Z,3.70
2022-10-28T21:13:32.754Z,3.47
2022-10-28T21:16:03.811Z,3.80
2022-10-28T21:18:31.226Z,3.38
2022-10-28T21:21:00.002Z,3.22
2022-10-28T21:23:28.153Z,3.38
2022-10-28T21:25:56.965Z,3.70
2022-10-28T21:28:24.309Z,3.70
2022-10-28T21:30:58.965Z,3.63
2022-10-28T21:33:26.066Z,3.50
2022-10-28T21:35:56.671Z,3.47
2022-10-28T21:38:24.532Z,3.60
2022-10-28T21:40:59.017Z,3.03
2022-10-28T21:43:27.703Z,3.13
2022-10-28T21:45:56.162Z,3.78
2022-10-28T21:48:23.721Z,4.00
2022-10-28T21:50:52.851Z,3.42
2022-10-28T21:53:20.456Z,3.38
2022-10-28T21:55:49.172Z,3.17
2022-10-28T21:58:17.996Z,3.00
2022-10-28T22:00:45.390Z,3.60
2022-10-28T22:03:13.952Z,3.38
2022-10-28T22:05:49.538Z,3.50
2022-10-28T22:08:16.953Z,3.38
2022-10-28T22:10:44.377Z,3.92
2022-10-28T22:13:11.632Z,3.60
2022-10-28T22:15:38.734Z,3.30
2022-10-28T22:18:05.936Z,2.97
2022-10-28T22:20:34.413Z,3.60
2022-10-28T22:23:01.700Z,3.25
2022-10-28T22:25:28.794Z,3.22
2022-10-28T22:27:55.892Z,3.42
2022-10-28T22:30:22.987Z,3.55
2022-10-28T22:32:50.073Z,3.00
2022-10-28T22:35:17.202Z,3.50
2022-10-28T22:37:45.669Z,3.20
2022-10-28T22:40:12.762Z,3.35
2022-10-28T22:42:39.844Z,3.15
2022-10-28T22:45:07.834Z,3.20
2022-10-28T22:47:35.018Z,3.53
2022-10-28T22:50:02.234Z,3.15
2022-10-28T22:52:29.325Z,3.30
2022-10-28T22:54:57.751Z,3.50
2022-10-28T22:57:24.885Z,3.75
2022-10-28T22:59:51.971Z,3.10
2022-10-28T23:02:19.200Z,3.30
2022-10-28T23:04:46.653Z,3.08
2022-10-28T23:07:13.751Z,3.28
2022-10-28T23:09:40.828Z,3.28
2022-10-28T23:12:09.573Z,3.08
2022-10-28T23:14:36.661Z,3.40
2022-10-28T23:17:03.733Z,3.15
2022-10-28T23:19:30.830Z,3.17
2022-10-28T23:21:57.919Z,3.33
2022-10-28T23:24:25.012Z,3.42
2022-10-28T23:26:52.304Z,3.25
2022-10-28T23:29:20.754Z,3.85
2022-10-28T23:31:47.863Z,3.25
2022-10-28T23:34:14.958Z,3.17
2022-10-28T23:36:42.089Z,3.28
2022-10-28T23:39:09.401Z,3.20
2022-10-28T23:41:36.510Z,3.15
2022-10-28T23:44:03.673Z,2.80
2022-10-28T23:46:36.569Z,3.42
2022-10-28T23:51:31.708Z,3.15
2022-10-28T23:53:58.806Z,3.05
2022-10-28T23:56:25.923Z,3.00
2022-10-28T23:58:52.997Z,2.78
